createdAt,value
2019-03-27T00:01:33.483Z,23.55
2019-03-27T00:03:37.414Z,24.40
2019-03-27T00:05:41.243Z,29.45
2019-03-27T00:07:45.130Z,28.05
2019-03-27T00:09:48.993Z,26.25
2019-03-27T00:11:52.926Z,28.62
2019-03-27T00:13:56.779Z,30.02
2019-03-27T00:16:00.742Z,24.02
2019-03-27T00:18:04.621Z,24.43
2019-03-27T00:20:09.739Z,28.07
2019-03-27T00:22:13.603Z,27.60
2019-03-27T00:24:19.033Z,29.00
2019-03-27T00:26:22.936Z,30.48
2019-03-27T00:28:26.866Z,27.20
2019-03-27T00:30:30.715Z,29.15
2019-03-27T00:32:34.635Z,28.67
2019-03-27T00:34:38.480Z,30.60
2019-03-27T00:36:42.371Z,30.43
2019-03-27T00:38:46.282Z,31.15
2019-03-27T00:40:50.146Z,32.73
2019-03-27T00:42:54.004Z,35.20
2019-03-27T00:44:57.992Z,41.30
2019-03-27T00:47:01.866Z,40.28
2019-03-27T00:49:05.712Z,46.00
2019-03-27T00:51:09.642Z,32.78
2019-03-27T00:53:13.491Z,28.77
2019-03-27T00:55:17.618Z,34.18
2019-03-27T00:57:21.646Z,29.60
2019-03-27T00:59:25.490Z,32.88
2019-03-27T01:01:29.507Z,31.52
2019-03-27T01:03:33.423Z,38.73
2019-03-27T01:05:37.231Z,31.55
2019-03-27T01:07:41.157Z,33.50
2019-03-27T01:09:45.131Z,32.90
2019-03-27T01:11:49.019Z,33.48
2019-03-27T01:13:52.860Z,29.80
2019-03-27T01:15:56.738Z,31.23
2019-03-27T01:18:00.648Z,30.43
2019-03-27T01:20:05.804Z,36.55
2019-03-27T01:22:09.644Z,36.83
2019-03-27T01:24:13.561Z,34.85
2019-03-27T01:26:17.430Z,37.78
2019-03-27T01:28:21.317Z,36.42
2019-03-27T01:30:25.178Z,34.78
2019-03-27T01:32:29.063Z,35.43
2019-03-27T01:34:32.903Z,31.23
2019-03-27T01:36:36.724Z,38.28
2019-03-27T01:38:40.660Z,32.38
2019-03-27T01:40:44.606Z,32.63
2019-03-27T01:42:48.442Z,27.37
2019-03-27T01:44:52.337Z,32.67
2019-03-27T01:46:56.180Z,32.48
2019-03-27T01:49:00.010Z,28.92
2019-03-27T01:51:04.309Z,35.38
2019-03-27T01:53:08.168Z,29.12
2019-03-27T01:55:11.998Z,30.85
2019-03-27T01:57:15.926Z,32.70
2019-03-27T01:59:19.756Z,35.00
2019-03-27T02:01:26.613Z,33.10
2019-03-27T02:03:30.539Z,38.90
2019-03-27T02:05:34.449Z,30.90
2019-03-27T02:07:38.273Z,35.00
2019-03-27T02:09:42.212Z,39.70
2019-03-27T02:11:46.236Z,41.55
2019-03-27T02:13:50.048Z,38.30
2019-03-27T02:16:06.276Z,39.30
2019-03-27T02:17:59.642Z,40.85
2019-03-27T02:20:04.049Z,41.63
2019-03-27T02:22:10.828Z,40.78
2019-03-27T02:24:14.718Z,35.58
2019-03-27T02:26:18.549Z,50.88
2019-03-27T02:28:22.423Z,51.42
2019-03-27T02:30:26.327Z,54.33
2019-03-27T02:32:30.238Z,43.00
2019-03-27T02:34:34.032Z,43.98
2019-03-27T02:36:38.013Z,40.75
2019-03-27T02:38:42.020Z,44.93
2019-03-27T02:40:46.259Z,47.05
2019-03-27T02:42:50.097Z,50.03
2019-03-27T02:44:53.962Z,52.88
2019-03-27T02:46:57.913Z,49.18
2019-03-27T02:49:01.696Z,45.63
2019-03-27T02:51:05.670Z,44.40
2019-03-27T02:53:10.165Z,41.58
2019-03-27T02:55:14.157Z,55.38
2019-03-27T02:57:18.004Z,42.75
2019-03-27T02:59:21.931Z,36.48
2019-03-27T03:01:25.819Z,34.05
2019-03-27T03:03:29.641Z,34.30
2019-03-27T03:05:33.636Z,33.28
2019-03-27T03:07:37.610Z,36.25
2019-03-27T03:09:41.434Z,35.40
2019-03-27T03:11:45.402Z,38.67
2019-03-27T03:13:49.200Z,32.78
2019-03-27T03:15:53.259Z,36.83
2019-03-27T03:17:57.191Z,36.58
2019-03-27T03:20:01.169Z,37.50
2019-03-27T03:22:05.509Z,35.70
2019-03-27T03:24:09.436Z,38.73
2019-03-27T03:26:13.287Z,35.68
2019-03-27T03:28:17.130Z,39.23
2019-03-27T03:30:21.026Z,35.40
2019-03-27T03:32:24.849Z,36.20
2019-03-27T03:34:28.717Z,39.42
2019-03-27T03:36:32.656Z,36.77
2019-03-27T03:38:36.529Z,38.90
2019-03-27T03:40:40.380Z,38.92
2019-03-27T03:42:44.558Z,38.95
2019-03-27T03:44:48.426Z,39.55
2019-03-27T03:46:59.436Z,45.25
2019-03-27T03:48:57.809Z,48.42
2019-03-27T03:51:03.681Z,53.55
2019-03-27T03:53:09.863Z,57.23
2019-03-27T03:55:13.766Z,61.10
2019-03-27T03:57:17.911Z,77.15
2019-03-27T03:59:23.315Z,116.47
2019-03-27T04:01:28.704Z,124.02
2019-03-27T04:03:35.563Z,150.95
2019-03-27T04:05:39.409Z,127.15
2019-03-27T04:07:43.303Z,101.95
2019-03-27T04:09:47.211Z,65.00
2019-03-27T04:11:51.057Z,46.58
2019-03-27T04:13:54.993Z,49.13
2019-03-27T04:15:59.032Z,49.98
2019-03-27T04:18:02.881Z,45.55
2019-03-27T04:20:08.134Z,68.35
2019-03-27T04:22:12.019Z,80.72
2019-03-27T04:24:15.914Z,64.05
2019-03-27T04:26:19.800Z,54.13
2019-03-27T04:28:23.633Z,52.13
2019-03-27T04:30:28.035Z,56.55
2019-03-27T04:32:31.857Z,53.23
2019-03-27T04:34:35.775Z,55.73
2019-03-27T04:36:39.712Z,45.90
2019-03-27T04:38:43.540Z,43.90
2019-03-27T04:40:47.446Z,37.45
2019-03-27T04:42:51.398Z,35.55
2019-03-27T04:44:55.225Z,41.98
2019-03-27T04:46:59.108Z,34.63
2019-03-27T04:49:07.360Z,36.65
2019-03-27T04:51:08.525Z,39.98
2019-03-27T04:53:12.372Z,42.93
2019-03-27T04:55:16.272Z,31.27
2019-03-27T04:57:20.083Z,38.67
2019-03-27T04:59:23.997Z,36.75
2019-03-27T05:01:27.966Z,36.48
2019-03-27T05:03:31.860Z,44.55
2019-03-27T05:05:35.733Z,45.95
2019-03-27T05:07:39.635Z,47.48
2019-03-27T05:09:43.528Z,50.10
2019-03-27T05:11:47.361Z,49.58
2019-03-27T05:13:51.327Z,48.20
2019-03-27T05:15:55.171Z,48.60
2019-03-27T05:17:59.097Z,47.62
2019-03-27T05:20:03.160Z,45.23
2019-03-27T05:22:07.000Z,42.75
2019-03-27T05:24:10.852Z,47.35
2019-03-27T05:26:14.763Z,48.48
2019-03-27T05:28:18.696Z,39.10
2019-03-27T05:30:27.308Z,39.38
2019-03-27T05:32:31.099Z,35.45
2019-03-27T05:34:35.012Z,43.95
2019-03-27T05:36:39.164Z,36.00
2019-03-27T05:38:43.082Z,38.10
2019-03-27T05:40:46.927Z,37.85
2019-03-27T05:43:00.543Z,35.60
2019-03-27T05:44:56.344Z,35.98
2019-03-27T05:47:00.208Z,36.60
2019-03-27T05:49:04.104Z,38.75
2019-03-27T05:51:08.017Z,43.68
2019-03-27T05:53:11.881Z,39.45
2019-03-27T05:55:15.830Z,37.10
2019-03-27T05:57:19.710Z,34.60
2019-03-27T05:59:23.631Z,49.98
2019-03-27T06:01:27.510Z,48.75
2019-03-27T06:03:31.375Z,42.03
2019-03-27T06:05:35.304Z,36.28
2019-03-27T06:07:39.094Z,39.27
2019-03-27T06:09:43.031Z,45.33
2019-03-27T06:11:47.004Z,32.58
2019-03-27T06:13:50.920Z,35.05
2019-03-27T06:15:54.815Z,31.17
2019-03-27T06:18:12.247Z,36.17
2019-03-27T06:20:05.924Z,43.23
2019-03-27T06:22:09.839Z,34.08
2019-03-27T06:24:13.681Z,34.15
2019-03-27T06:26:17.559Z,40.12
2019-03-27T06:28:21.489Z,37.40
2019-03-27T06:30:25.326Z,33.10
2019-03-27T06:32:29.204Z,30.05
2019-03-27T06:34:33.072Z,30.70
2019-03-27T06:36:37.224Z,31.12
2019-03-27T06:38:41.021Z,27.87
2019-03-27T06:40:44.995Z,27.22
2019-03-27T06:42:48.830Z,26.48
2019-03-27T06:44:52.718Z,27.90
2019-03-27T06:46:56.802Z,24.02
2019-03-27T06:49:00.668Z,25.20
2019-03-27T06:51:04.581Z,27.48
2019-03-27T06:53:08.492Z,25.30
2019-03-27T06:55:12.369Z,30.72
2019-03-27T06:57:16.249Z,23.67
2019-03-27T06:59:20.159Z,28.92
2019-03-27T07:01:24.007Z,23.60
2019-03-27T07:03:27.889Z,30.45
2019-03-27T07:05:31.788Z,30.72
2019-03-27T07:07:35.643Z,30.30
2019-03-27T07:09:42.416Z,22.02
2019-03-27T07:11:45.218Z,24.80
2019-03-27T07:13:49.168Z,25.40
2019-03-27T07:15:53.100Z,25.08
2019-03-27T07:17:56.996Z,24.90
2019-03-27T07:20:00.832Z,25.25
2019-03-27T07:22:04.726Z,27.55
2019-03-27T07:24:08.607Z,21.68
2019-03-27T07:26:12.447Z,26.75
2019-03-27T07:28:16.319Z,24.57
2019-03-27T07:30:20.211Z,27.32
2019-03-27T07:32:24.092Z,21.05
2019-03-27T07:34:28.093Z,26.30
2019-03-27T07:36:31.957Z,21.00
2019-03-27T07:38:35.792Z,18.07
2019-03-27T07:40:39.648Z,25.05
2019-03-27T07:42:43.576Z,19.67
2019-03-27T07:44:47.430Z,25.05
2019-03-27T07:46:51.389Z,28.75
2019-03-27T07:48:55.272Z,23.00
2019-03-27T07:50:59.196Z,19.52
2019-03-27T07:53:03.067Z,16.73
2019-03-27T07:55:18.799Z,19.75
2019-03-27T07:57:12.567Z,16.02
2019-03-27T07:59:16.411Z,17.60
2019-03-27T08:01:20.268Z,21.42
2019-03-27T08:03:24.356Z,25.23
2019-03-27T08:05:28.231Z,23.90
2019-03-27T08:07:32.021Z,19.82
2019-03-27T08:09:36.025Z,21.02
2019-03-27T08:11:39.921Z,20.15
2019-03-27T08:13:43.848Z,16.73
2019-03-27T08:15:47.756Z,16.70
2019-03-27T08:17:51.562Z,28.05
2019-03-27T08:19:55.477Z,22.70
2019-03-27T08:21:59.328Z,21.87
2019-03-27T08:24:03.177Z,19.65
2019-03-27T08:26:07.060Z,17.40
2019-03-27T08:28:10.995Z,21.00
2019-03-27T08:30:16.071Z,20.27
2019-03-27T08:32:19.901Z,16.90
2019-03-27T08:34:23.842Z,24.37
2019-03-27T08:36:27.671Z,17.35
2019-03-27T08:38:31.591Z,15.93
2019-03-27T08:40:35.470Z,13.32
2019-03-27T08:42:39.353Z,16.45
2019-03-27T08:44:43.185Z,137.50
2019-03-27T08:46:47.331Z,48.52
2019-03-27T08:48:51.242Z,13.35
2019-03-27T08:50:55.083Z,17.15
2019-03-27T08:52:58.942Z,13.18
2019-03-27T08:55:02.952Z,11.63
2019-03-27T08:57:07.151Z,13.75
2019-03-27T08:59:11.020Z,19.37
2019-03-27T09:01:14.817Z,22.50
2019-03-27T09:03:19.075Z,17.75
2019-03-27T09:05:22.915Z,14.53
2019-03-27T09:07:26.742Z,18.77
2019-03-27T09:09:30.740Z,21.33
2019-03-27T09:11:34.706Z,22.05
2019-03-27T09:13:38.515Z,21.27
2019-03-27T09:15:45.427Z,18.67
2019-03-27T09:17:49.283Z,26.15
2019-03-27T09:19:53.201Z,26.75
2019-03-27T09:21:57.048Z,32.65
2019-03-27T09:24:00.941Z,25.70
2019-03-27T09:26:04.873Z,18.55
2019-03-27T09:28:08.832Z,19.02
2019-03-27T09:30:13.556Z,18.17
2019-03-27T09:32:17.399Z,21.05
2019-03-27T09:34:21.328Z,18.17
2019-03-27T09:36:25.195Z,16.35
2019-03-27T09:38:29.033Z,18.35
2019-03-27T09:40:32.978Z,21.02
2019-03-27T09:42:36.806Z,19.12
2019-03-27T09:44:40.609Z,20.32
2019-03-27T09:46:44.538Z,24.60
2019-03-27T09:48:48.387Z,25.57
2019-03-27T09:50:52.243Z,18.70
2019-03-27T09:52:56.265Z,20.80
2019-03-27T09:55:00.270Z,16.50
2019-03-27T09:57:04.165Z,16.52
2019-03-27T09:59:08.099Z,17.00
2019-03-27T10:01:12.007Z,15.75
2019-03-27T10:03:16.022Z,20.48
2019-03-27T10:05:19.865Z,16.87
2019-03-27T10:07:23.711Z,16.12
2019-03-27T10:09:27.546Z,19.67
2019-03-27T10:11:31.520Z,17.32
2019-03-27T10:13:35.406Z,15.65
2019-03-27T10:15:39.250Z,19.87
2019-03-27T10:17:43.185Z,16.40
2019-03-27T10:19:47.008Z,17.57
2019-03-27T10:21:50.926Z,16.93
2019-03-27T10:23:54.887Z,16.02
2019-03-27T10:25:58.859Z,17.45
2019-03-27T10:28:03.920Z,13.75
2019-03-27T10:30:08.810Z,16.23
2019-03-27T10:32:12.674Z,16.90
2019-03-27T10:34:16.472Z,16.52
2019-03-27T10:36:20.514Z,14.23
2019-03-27T10:38:24.431Z,13.08
2019-03-27T10:40:28.267Z,8.00
2019-03-27T10:42:33.713Z,15.83
2019-03-27T10:44:37.595Z,10.93
2019-03-27T10:46:41.578Z,12.75
2019-03-27T10:48:52.517Z,13.05
2019-03-27T10:50:50.994Z,13.05
2019-03-27T10:52:54.859Z,10.80
2019-03-27T10:54:58.900Z,16.00
2019-03-27T10:57:02.728Z,11.45
2019-03-27T10:59:06.627Z,11.25
2019-03-27T11:01:10.499Z,9.05
2019-03-27T11:03:14.334Z,11.35
2019-03-27T11:05:18.511Z,12.73
2019-03-27T11:07:22.393Z,13.08
2019-03-27T11:09:26.297Z,14.23
2019-03-27T11:11:30.212Z,13.03
2019-03-27T11:13:34.498Z,10.75
2019-03-27T11:15:38.729Z,9.35
2019-03-27T11:17:42.607Z,15.48
2019-03-27T11:19:46.468Z,17.10
2019-03-27T11:21:50.458Z,16.90
2019-03-27T11:23:54.322Z,16.48
2019-03-27T11:25:58.147Z,12.53
2019-03-27T11:28:02.052Z,13.28
2019-03-27T11:30:07.880Z,7.03
2019-03-27T11:32:11.750Z,9.65
2019-03-27T11:34:15.780Z,15.18
2019-03-27T11:36:20.025Z,12.07
2019-03-27T11:38:23.885Z,12.78
2019-03-27T11:40:27.796Z,11.20
2019-03-27T11:42:31.621Z,11.75
2019-03-27T11:44:35.569Z,11.95
2019-03-27T11:46:39.503Z,12.60
2019-03-27T11:48:43.467Z,11.57
2019-03-27T11:50:47.352Z,11.20
2019-03-27T11:52:51.252Z,11.18
2019-03-27T11:54:55.100Z,13.80
2019-03-27T11:56:58.912Z,14.07
2019-03-27T11:59:02.925Z,11.48
2019-03-27T12:01:06.863Z,12.88
2019-03-27T12:03:10.877Z,16.93
2019-03-27T12:05:14.900Z,14.55
2019-03-27T12:07:18.798Z,10.78
2019-03-27T12:09:22.668Z,13.38
2019-03-27T12:11:26.661Z,15.45
2019-03-27T12:13:33.717Z,16.10
2019-03-27T12:15:39.587Z,20.17
2019-03-27T12:17:43.480Z,16.45
2019-03-27T12:19:47.392Z,20.12
2019-03-27T12:21:54.573Z,16.70
2019-03-27T12:24:00.240Z,15.32
2019-03-27T12:26:04.221Z,13.35
2019-03-27T12:28:08.045Z,18.40
2019-03-27T12:30:12.019Z,13.30
2019-03-27T12:32:15.904Z,12.60
2019-03-27T12:34:19.789Z,15.72
2019-03-27T12:36:23.682Z,15.20
2019-03-27T12:38:27.562Z,13.00
2019-03-27T12:40:31.414Z,13.40
2019-03-27T12:42:35.386Z,9.58
2019-03-27T12:44:39.239Z,9.98
2019-03-27T12:46:43.107Z,9.73
2019-03-27T12:48:46.971Z,10.53
2019-03-27T12:50:52.891Z,15.28
2019-03-27T12:52:56.727Z,9.48
2019-03-27T12:55:00.669Z,10.28
2019-03-27T12:57:04.770Z,13.43
2019-03-27T12:59:08.596Z,10.85
2019-03-27T13:01:12.490Z,14.68
2019-03-27T13:03:16.407Z,16.82
2019-03-27T13:05:20.608Z,16.12
2019-03-27T13:07:24.484Z,9.40
2019-03-27T13:09:28.274Z,13.68
2019-03-27T13:11:32.203Z,13.22
2019-03-27T13:13:36.227Z,10.30
2019-03-27T13:15:40.095Z,15.30
2019-03-27T13:17:43.970Z,13.75
2019-03-27T13:19:47.888Z,16.02
2019-03-27T13:21:51.777Z,12.20
2019-03-27T13:23:56.075Z,13.10
2019-03-27T13:25:59.951Z,15.43
2019-03-27T13:28:04.177Z,13.88
2019-03-27T13:30:08.914Z,13.40
2019-03-27T13:32:12.796Z,10.35
2019-03-27T13:34:16.653Z,17.32
2019-03-27T13:36:20.504Z,17.87
2019-03-27T13:38:24.415Z,11.28
2019-03-27T13:40:28.318Z,12.20
2019-03-27T13:42:32.211Z,15.75
2019-03-27T13:44:37.471Z,15.95
2019-03-27T13:46:41.623Z,12.60
2019-03-27T13:48:45.534Z,16.23
2019-03-27T13:50:49.387Z,12.03
2019-03-27T13:52:53.326Z,13.88
2019-03-27T13:54:57.226Z,16.70
2019-03-27T13:57:01.132Z,14.10
2019-03-27T13:59:05.037Z,10.25
2019-03-27T14:01:10.354Z,13.83
2019-03-27T14:03:14.625Z,10.93
2019-03-27T14:05:18.638Z,12.47
2019-03-27T14:07:23.314Z,13.83
2019-03-27T14:09:27.145Z,15.00
2019-03-27T14:11:30.946Z,12.23
2019-03-27T14:13:34.914Z,14.10
2019-03-27T14:15:38.828Z,8.88
2019-03-27T14:17:42.721Z,10.90
2019-03-27T14:19:46.781Z,13.80
2019-03-27T14:21:54.909Z,14.45
2019-03-27T14:23:57.618Z,13.45
2019-03-27T14:26:01.815Z,18.77
2019-03-27T14:28:05.908Z,16.73
2019-03-27T14:30:13.011Z,15.90
2019-03-27T14:32:17.123Z,13.40
2019-03-27T14:34:40.554Z,13.48
2019-03-27T14:36:45.049Z,12.88
2019-03-27T14:38:49.041Z,17.05
2019-03-27T14:40:56.221Z,14.70
2019-03-27T14:45:23.160Z,17.35
2019-03-27T14:47:28.011Z,16.65
2019-03-27T14:49:31.999Z,18.90
2019-03-27T14:51:36.175Z,14.78
2019-03-27T14:53:40.213Z,23.15
2019-03-27T14:55:44.732Z,15.83
2019-03-27T14:57:48.861Z,15.48
2019-03-27T14:59:53.263Z,17.87
2019-03-27T15:01:57.140Z,18.65
2019-03-27T15:04:01.210Z,14.13
2019-03-27T15:06:05.460Z,18.55
2019-03-27T15:08:09.620Z,16.73
2019-03-27T15:10:14.062Z,18.02
2019-03-27T15:12:18.102Z,15.05
2019-03-27T15:14:22.279Z,13.65
2019-03-27T15:16:26.472Z,14.40
2019-03-27T15:18:30.547Z,14.00
2019-03-27T15:20:34.855Z,13.45
2019-03-27T15:22:38.937Z,13.85
2019-03-27T15:24:43.049Z,13.08
2019-03-27T15:26:47.113Z,15.50
2019-03-27T15:28:51.251Z,16.02
2019-03-27T15:30:56.697Z,18.57
2019-03-27T15:33:00.820Z,17.15
2019-03-27T15:35:05.307Z,18.60
2019-03-27T15:37:09.470Z,18.48
2019-03-27T15:39:13.819Z,22.50
2019-03-27T15:41:18.200Z,20.82
2019-03-27T15:43:23.551Z,25.45
2019-03-27T15:45:28.899Z,20.20
2019-03-27T15:47:32.774Z,21.23
2019-03-27T15:49:36.856Z,19.98
2019-03-27T15:51:42.421Z,22.00
2019-03-27T15:53:47.482Z,18.75
2019-03-27T15:55:51.693Z,20.17
2019-03-27T15:57:55.560Z,22.48
2019-03-27T15:59:59.501Z,20.00
2019-03-27T16:02:04.240Z,20.80
2019-03-27T16:04:08.131Z,19.90
2019-03-27T16:06:12.011Z,23.45
2019-03-27T16:08:16.009Z,26.93
2019-03-27T16:10:19.837Z,28.60
2019-03-27T16:12:23.750Z,29.07
2019-03-27T16:14:27.567Z,28.60
2019-03-27T16:16:31.454Z,36.75
2019-03-27T16:18:35.355Z,24.27
2019-03-27T16:20:42.482Z,26.12
2019-03-27T16:22:50.912Z,31.70
2019-03-27T16:24:53.377Z,33.63
2019-03-27T16:27:04.455Z,32.05
2019-03-27T16:29:02.881Z,38.15
2019-03-27T16:31:06.810Z,41.15
2019-03-27T16:33:10.673Z,36.65
2019-03-27T16:35:14.503Z,31.75
2019-03-27T16:37:18.439Z,24.57
2019-03-27T16:39:22.307Z,25.05
2019-03-27T16:41:26.147Z,24.12
2019-03-27T16:43:30.057Z,27.60
2019-03-27T16:45:34.801Z,25.15
2019-03-27T16:47:38.779Z,23.90
2019-03-27T16:49:42.916Z,25.27
2019-03-27T16:51:46.710Z,24.75
2019-03-27T16:53:50.586Z,26.17
2019-03-27T16:55:54.391Z,63.20
2019-03-27T16:57:58.319Z,35.00
2019-03-27T17:00:02.150Z,33.85
2019-03-27T17:02:06.323Z,27.93
2019-03-27T17:04:10.173Z,26.90
2019-03-27T17:06:14.215Z,27.25
2019-03-27T17:08:18.202Z,30.08
2019-03-27T17:10:22.112Z,30.15
2019-03-27T17:12:25.989Z,27.58
2019-03-27T17:14:29.870Z,22.22
2019-03-27T17:16:33.778Z,24.12
2019-03-27T17:18:37.632Z,31.87
2019-03-27T17:20:41.552Z,29.65
2019-03-27T17:22:45.473Z,26.87
2019-03-27T17:24:49.311Z,24.92
2019-03-27T17:26:53.186Z,24.37
2019-03-27T17:28:57.080Z,25.05
2019-03-27T17:31:00.953Z,23.45
2019-03-27T17:33:04.988Z,29.40
2019-03-27T17:35:09.022Z,29.63
2019-03-27T17:37:12.866Z,28.07
2019-03-27T17:39:25.722Z,25.65
2019-03-27T17:41:29.576Z,25.27
2019-03-27T17:43:33.384Z,27.52
2019-03-27T17:45:37.281Z,32.48
2019-03-27T17:47:41.227Z,32.75
2019-03-27T17:49:45.153Z,30.65
2019-03-27T17:51:49.088Z,31.40
2019-03-27T17:53:53.014Z,29.07
2019-03-27T17:55:56.852Z,27.80
2019-03-27T17:58:00.690Z,28.98
2019-03-27T18:00:10.127Z,30.77
2019-03-27T18:02:14.006Z,27.05
2019-03-27T18:04:17.883Z,27.73
2019-03-27T18:06:21.796Z,26.20
2019-03-27T18:08:25.644Z,33.13
2019-03-27T18:10:31.026Z,28.98
2019-03-27T18:12:34.954Z,31.05
2019-03-27T18:14:38.894Z,34.63
2019-03-27T18:16:42.757Z,32.63
2019-03-27T18:18:46.772Z,35.23
2019-03-27T18:20:50.559Z,39.53
2019-03-27T18:22:54.498Z,39.10
2019-03-27T18:24:58.404Z,40.83
2019-03-27T18:27:05.179Z,39.48
2019-03-27T18:29:10.368Z,38.15
2019-03-27T18:31:14.221Z,42.83
2019-03-27T18:33:18.250Z,41.55
2019-03-27T18:35:22.152Z,41.08
2019-03-27T18:37:26.101Z,41.20
2019-03-27T18:39:29.997Z,38.40
2019-03-27T18:41:33.954Z,39.70
2019-03-27T18:43:37.791Z,41.92
2019-03-27T18:45:41.740Z,49.00
2019-03-27T18:47:45.631Z,46.92
2019-03-27T18:49:49.573Z,39.35
2019-03-27T18:51:53.552Z,48.98
2019-03-27T18:53:59.819Z,36.77
2019-03-27T18:56:03.424Z,37.80
2019-03-27T18:58:07.280Z,47.90
2019-03-27T19:00:11.446Z,41.50
2019-03-27T19:02:15.348Z,36.00
2019-03-27T19:04:19.192Z,34.33
2019-03-27T19:06:23.111Z,34.85
2019-03-27T19:08:27.046Z,35.83
2019-03-27T19:10:33.848Z,33.20
2019-03-27T19:12:37.705Z,38.78
2019-03-27T19:14:41.579Z,42.23
2019-03-27T19:16:45.528Z,48.20
2019-03-27T19:18:49.400Z,42.33
2019-03-27T19:20:54.678Z,43.50
2019-03-27T19:23:00.012Z,44.08
2019-03-27T19:25:04.710Z,40.15
2019-03-27T19:27:08.823Z,41.40
2019-03-27T19:29:12.720Z,38.02
2019-03-27T19:31:16.731Z,39.30
2019-03-27T19:33:20.659Z,43.35
2019-03-27T19:35:24.544Z,46.88
2019-03-27T19:37:28.446Z,48.28
2019-03-27T19:39:32.330Z,50.92
2019-03-27T19:41:36.292Z,44.73
2019-03-27T19:43:40.236Z,41.80
2019-03-27T19:45:47.048Z,47.17
2019-03-27T19:47:50.932Z,53.63
2019-03-27T19:49:54.787Z,45.05
2019-03-27T19:51:58.634Z,40.78
2019-03-27T19:54:02.488Z,40.75
2019-03-27T19:56:06.384Z,35.00
2019-03-27T19:58:10.363Z,45.35
2019-03-27T20:00:15.039Z,41.00
2019-03-27T20:02:18.968Z,39.48
2019-03-27T20:04:22.822Z,39.23
2019-03-27T20:06:26.681Z,42.38
2019-03-27T20:08:30.918Z,39.08
2019-03-27T20:10:34.766Z,45.05
2019-03-27T20:12:38.648Z,51.05
2019-03-27T20:14:42.787Z,46.48
2019-03-27T20:16:46.739Z,44.18
2019-03-27T20:18:50.683Z,49.80
2019-03-27T20:20:54.584Z,45.52
2019-03-27T20:22:58.403Z,47.75
2019-03-27T20:25:02.420Z,44.65
2019-03-27T20:27:06.408Z,48.13
2019-03-27T20:29:10.336Z,41.40
2019-03-27T20:31:14.135Z,42.48
2019-03-27T20:33:18.136Z,43.87
2019-03-27T20:35:23.103Z,38.05
2019-03-27T20:37:27.009Z,48.58
2019-03-27T20:39:30.978Z,45.78
2019-03-27T20:41:34.801Z,41.30
2019-03-27T20:43:38.707Z,42.55
2019-03-27T20:45:42.617Z,44.23
2019-03-27T20:47:46.456Z,41.00
2019-03-27T20:49:50.407Z,43.55
2019-03-27T20:51:54.995Z,43.68
2019-03-27T20:54:01.419Z,44.70
2019-03-27T20:56:04.605Z,48.20
2019-03-27T20:58:08.465Z,52.53
2019-03-27T21:00:12.837Z,53.13
2019-03-27T21:02:19.977Z,51.58
2019-03-27T21:04:22.239Z,42.30
2019-03-27T21:06:26.139Z,44.90
2019-03-27T21:08:30.012Z,46.10
2019-03-27T21:10:33.854Z,44.45
2019-03-27T21:12:37.931Z,37.83
2019-03-27T21:14:41.775Z,35.60
2019-03-27T21:16:45.628Z,41.00
2019-03-27T21:18:49.542Z,38.80
2019-03-27T21:20:53.411Z,43.60
2019-03-27T21:22:57.269Z,35.48
2019-03-27T21:25:08.755Z,38.13
2019-03-27T21:27:06.680Z,34.25
2019-03-27T21:29:10.558Z,35.88
2019-03-27T21:31:14.455Z,30.60
2019-03-27T21:33:18.314Z,33.78
2019-03-27T21:35:22.195Z,31.70
2019-03-27T21:37:26.063Z,31.90
2019-03-27T21:39:29.940Z,34.00
2019-03-27T21:41:33.935Z,32.40
2019-03-27T21:43:37.830Z,34.85
2019-03-27T21:45:41.706Z,35.10
2019-03-27T21:47:45.669Z,32.80
2019-03-27T21:49:49.463Z,34.27
2019-03-27T21:51:53.414Z,31.95
2019-03-27T21:53:57.297Z,33.65
2019-03-27T21:56:01.181Z,33.58
2019-03-27T21:58:05.069Z,37.58
2019-03-27T22:00:09.712Z,32.55
2019-03-27T22:02:13.702Z,43.58
2019-03-27T22:04:17.831Z,43.60
2019-03-27T22:06:22.151Z,41.90
2019-03-27T22:08:26.260Z,36.63
2019-03-27T22:10:30.275Z,38.50
2019-03-27T22:12:34.353Z,39.75
2019-03-27T22:14:38.301Z,43.15
2019-03-27T22:16:42.363Z,39.95
2019-03-27T22:18:46.440Z,37.35
2019-03-27T22:20:50.338Z,35.73
2019-03-27T22:22:54.310Z,42.20
2019-03-27T22:24:58.169Z,36.05
2019-03-27T22:27:02.029Z,42.80
2019-03-27T22:29:05.962Z,41.70
2019-03-27T22:31:09.822Z,41.80
2019-03-27T22:33:13.641Z,43.87
2019-03-27T22:35:17.604Z,42.38
2019-03-27T22:37:21.466Z,39.92
2019-03-27T22:39:25.330Z,44.27
2019-03-27T22:41:29.278Z,40.30
2019-03-27T22:43:33.194Z,38.63
2019-03-27T22:45:37.086Z,38.92
2019-03-27T22:47:40.950Z,48.45
2019-03-27T22:49:44.884Z,45.63
2019-03-27T22:51:48.736Z,39.40
2019-03-27T22:53:52.621Z,47.15
2019-03-27T22:55:56.638Z,43.23
2019-03-27T22:58:00.479Z,43.20
2019-03-27T23:00:07.371Z,49.65
2019-03-27T23:02:11.477Z,45.25
2019-03-27T23:04:15.317Z,47.27
2019-03-27T23:06:19.222Z,43.68
2019-03-27T23:08:23.106Z,50.52
2019-03-27T23:10:27.022Z,49.33
2019-03-27T23:12:30.990Z,45.58
2019-03-27T23:14:34.880Z,46.60
2019-03-27T23:16:38.717Z,51.20
2019-03-27T23:18:43.020Z,49.20
2019-03-27T23:20:46.874Z,46.48
2019-03-27T23:22:50.686Z,50.63
2019-03-27T23:24:54.630Z,46.73
2019-03-27T23:26:58.490Z,44.40
2019-03-27T23:29:02.302Z,48.63
2019-03-27T23:31:06.269Z,50.85
2019-03-27T23:33:10.101Z,46.65
2019-03-27T23:35:14.184Z,47.45
2019-03-27T23:37:18.109Z,50.05
2019-03-27T23:39:21.966Z,46.37
2019-03-27T23:41:25.825Z,49.13
2019-03-27T23:43:29.711Z,49.00
2019-03-27T23:45:33.560Z,53.78
2019-03-27T23:47:37.516Z,53.80
2019-03-27T23:49:41.443Z,47.23
2019-03-27T23:51:45.313Z,52.03
2019-03-27T23:53:49.224Z,48.05
2019-03-27T23:55:53.126Z,46.30
2019-03-27T23:57:56.945Z,48.60
